Fairfield, TX

12:05 AM CST on December 03, 2016 (GMT -0600)
Sam's Restaurant | | Change Station

Elev 474 ft 31.73 °N, 96.15 °W | Updated 3 seconds ago

Light Rain
Light Rain
48.8 °F
Feels Like 49 °F
N
0.0
Wind Variable Wind from ESE
Gusts 0.0 mph

Today
High -- | Low -- °F
--% Chance of Precip.
Yesterday
High -- | Low -- °F
Precip. -- in
Pressure 30.10 in
Visibility 10.0 miles
Clouds Mostly Cloudy 2600 ft
Mostly Cloudy 3300 ft
Overcast 5000 ft
Windchill 49 °F
Dew Point 46 °F
Humidity 90%
Rainfall 0.02 in
Snow Depth Not available.
7:08 AM 5:20 PM
Waxing Crescent, 13% visible
METAR KLXY 030555Z AUTO 08007G15KT 020V110 10SM -RA BKN026 BKN033 OVC050 08/07 A3010 RMK AO2 P0014 60014 T00830067 10142 20082 401960060
Pressure 30.10 in
Visibility 10.0 miles
Clouds Mostly Cloudy 2600 ft
Mostly Cloudy 3300 ft
Overcast 5000 ft
Windchill 49 °F
Dew Point 46 °F
Humidity 90%
Rainfall 0.02 in
Snow Depth Not available.
7:08 AM 5:20 PM
Waxing Crescent, 13% visible
METAR KLXY 030555Z AUTO 08007G15KT 020V110 10SM -RA BKN026 BKN033 OVC050 08/07 A3010 RMK AO2 P0014 60014 T00830067 10142 20082 401960060

10-Day Weather Forecast

Almanac

Astronomy

Dec. 03, 2016 Rise Set
Actual Time
Civil Twilight
Nautical Twilight
Astronomical Twilight
Moon
Length of Visible Light
Length of Day
Tomorrow will be .
, % of the Moon is Illuminated

Today's Extremes

State Highs State Lows

Community

WunderPhotos

Upload Photos

1,955,427 photos uploaded!

WunderBlog® & News

Nearby

Air Quality

  Air Quality AQ Index Pollutant
Not available.

Snow Depth

Station Depth Elevation

Earthquake Activity

City Distance Mag. Time & Date
Minimum magnitude displayed is 2.5.

Coastal Water Temperatures

Place Temperature

Stations

Nearby Weather Stations

Station Location Temp. Windchill Dew Point Humidity Wind Precip. Elev Updated Type
                   

Watches & Warnings

There are currently no watches in effect.